createdAt,value
2019-06-01T00:02:22.024Z,68.10
2019-06-01T00:04:51.593Z,68.20
2019-06-01T00:07:21.212Z,68.80
2019-06-01T00:09:50.819Z,69.10
2019-06-01T00:12:20.299Z,69.20
2019-06-01T00:14:51.543Z,69.80
2019-06-01T00:17:22.531Z,69.10
2019-06-01T00:19:52.115Z,68.60
2019-06-01T00:22:22.382Z,68.50
2019-06-01T00:24:52.312Z,69.10
2019-06-01T00:27:21.989Z,68.30
2019-06-01T00:29:51.596Z,68.20
2019-06-01T00:32:21.135Z,68.30
2019-06-01T00:34:55.191Z,68.40
2019-06-01T00:37:24.811Z,69.20
2019-06-01T00:39:54.428Z,70.40
2019-06-01T00:42:24.016Z,70.30
2019-06-01T00:44:53.623Z,70.20
2019-06-01T00:47:23.279Z,71.20
2019-06-01T00:49:53.159Z,70.70
2019-06-01T00:52:22.887Z,70.30
2019-06-01T00:54:53.622Z,70.10
2019-06-01T00:57:23.347Z,69.50
2019-06-01T00:59:53.682Z,69.20
2019-06-01T01:02:24.168Z,69.30
2019-06-01T01:05:13.640Z,68.90
2019-06-01T01:07:44.394Z,69.90
2019-06-01T01:10:15.328Z,69.50
2019-06-01T01:13:01.511Z,68.90
2019-06-01T01:15:31.093Z,68.90
2019-06-01T01:18:00.632Z,69.50
2019-06-01T01:20:30.284Z,68.90
2019-06-01T01:22:59.837Z,68.90
2019-06-01T01:25:30.037Z,69.20
2019-06-01T01:27:59.627Z,69.80
2019-06-01T01:30:29.271Z,68.80
2019-06-01T01:32:59.546Z,68.80
2019-06-01T01:35:29.284Z,68.90
2019-06-01T01:37:59.791Z,68.70
2019-06-01T01:40:29.415Z,68.70
2019-06-01T01:43:00.020Z,68.30
2019-06-01T01:45:29.635Z,68.60
2019-06-01T01:48:18.529Z,68.40
2019-06-01T01:50:47.983Z,68.50
2019-06-01T01:53:17.591Z,68.00
2019-06-01T01:55:47.058Z,68.30
2019-06-01T01:58:16.694Z,68.40
2019-06-01T02:00:48.088Z,69.40
2019-06-01T02:03:17.763Z,68.60
2019-06-01T02:05:47.338Z,68.60
2019-06-01T02:08:17.143Z,68.50
2019-06-01T02:10:46.660Z,68.40
2019-06-01T02:13:16.191Z,68.30
2019-06-01T02:15:46.871Z,68.20
2019-06-01T02:18:16.982Z,68.40
2019-06-01T02:20:46.463Z,68.00
2019-06-01T02:23:16.075Z,67.90
2019-06-01T02:25:45.698Z,67.80
2019-06-01T02:28:15.366Z,67.70
2019-06-01T02:30:45.807Z,68.50
2019-06-01T02:33:15.339Z,68.00
2019-06-01T02:35:45.273Z,68.20
2019-06-01T02:38:14.875Z,69.00
2019-06-01T02:40:44.505Z,68.70
2019-06-01T02:43:14.371Z,69.00
2019-06-01T02:45:43.979Z,68.50
2019-06-01T02:48:13.521Z,69.20
2019-06-01T02:50:43.095Z,68.60
2019-06-01T02:53:12.695Z,68.70
2019-06-01T02:55:55.822Z,68.40
2019-06-01T02:58:25.423Z,68.30
2019-06-01T03:01:10.029Z,68.60
2019-06-01T03:03:40.571Z,68.50
2019-06-01T03:06:13.231Z,68.70
2019-06-01T03:08:45.729Z,68.90
2019-06-01T03:11:17.603Z,69.10
2019-06-01T03:13:49.984Z,69.70
2019-06-01T03:16:22.359Z,69.50
2019-06-01T03:18:54.115Z,70.10
2019-06-01T03:21:26.646Z,69.40
2019-06-01T03:23:59.734Z,70.10
2019-06-01T03:26:32.424Z,70.00
2019-06-01T03:29:03.603Z,70.20
2019-06-01T03:31:47.544Z,69.80
2019-06-01T03:34:17.197Z,69.10
2019-06-01T03:36:46.922Z,69.40
2019-06-01T03:39:16.763Z,69.70
2019-06-01T03:41:46.536Z,70.30
2019-06-01T03:44:17.295Z,70.80
2019-06-01T03:46:46.878Z,71.10
2019-06-01T03:49:17.560Z,72.60
2019-06-01T03:51:47.082Z,71.30
2019-06-01T03:54:16.756Z,71.40
2019-06-01T03:56:46.370Z,71.10
2019-06-01T03:59:15.945Z,70.80
2019-06-01T04:01:47.132Z,71.40
2019-06-01T04:04:16.786Z,72.40
2019-06-01T04:06:46.315Z,72.10
2019-06-01T04:09:35.101Z,71.80
2019-06-01T04:12:05.519Z,71.40
2019-06-01T04:14:35.208Z,71.10
2019-06-01T04:17:06.123Z,71.30
2019-06-01T04:19:36.031Z,70.80
2019-06-01T04:22:07.992Z,70.90
2019-06-01T04:24:37.751Z,71.60
2019-06-01T04:27:08.221Z,71.40
2019-06-01T04:29:38.727Z,71.60
2019-06-01T04:32:08.641Z,72.00
2019-06-01T04:34:40.132Z,73.00
2019-06-01T04:37:09.739Z,72.60
2019-06-01T04:39:39.216Z,72.00
2019-06-01T04:42:09.746Z,72.00
2019-06-01T04:44:39.420Z,70.70
2019-06-01T04:47:09.546Z,70.40
2019-06-01T04:49:40.279Z,71.10
2019-06-01T04:52:11.848Z,71.20
2019-06-01T04:54:41.419Z,72.40
2019-06-01T04:57:11.048Z,72.60
2019-06-01T04:59:40.855Z,73.30
2019-06-01T05:02:11.587Z,73.30
2019-06-01T05:04:43.595Z,74.20
2019-06-01T05:07:13.579Z,73.70
2019-06-01T05:09:43.190Z,73.20
2019-06-01T05:12:13.603Z,74.00
2019-06-01T05:14:43.450Z,72.70
2019-06-01T05:17:14.929Z,71.00
2019-06-01T05:19:44.261Z,69.80
2019-06-01T05:22:14.637Z,69.50
2019-06-01T05:24:44.204Z,70.90
2019-06-01T05:27:15.317Z,70.70
2019-06-01T05:29:45.981Z,69.40
2019-06-01T05:32:16.668Z,67.60
2019-06-01T05:37:21.764Z,64.30
2019-06-01T05:39:53.312Z,64.50
2019-06-01T05:42:22.859Z,64.50
2019-06-01T05:44:52.359Z,65.00
2019-06-01T05:47:22.507Z,64.00
2019-06-01T05:49:52.199Z,63.00
2019-06-01T05:52:22.962Z,62.50
2019-06-01T05:54:52.863Z,63.70
2019-06-01T05:57:23.268Z,62.90
2019-06-01T05:59:52.888Z,62.90
2019-06-01T06:02:23.396Z,62.70
2019-06-01T06:04:54.238Z,64.10
2019-06-01T06:07:23.807Z,63.70
2019-06-01T06:09:53.244Z,62.50
2019-06-01T06:12:22.886Z,62.30
2019-06-01T06:14:52.463Z,62.30
2019-06-01T06:17:24.327Z,61.30
2019-06-01T06:19:53.308Z,60.30
2019-06-01T06:22:22.838Z,60.00
2019-06-01T06:24:52.520Z,59.80
2019-06-01T06:27:22.784Z,60.00
2019-06-01T06:29:52.443Z,59.20
2019-06-01T06:32:21.979Z,60.00
2019-06-01T06:34:51.527Z,62.20
2019-06-01T06:37:21.872Z,62.10
2019-06-01T06:39:51.491Z,60.90
2019-06-01T06:42:20.972Z,62.40
2019-06-01T06:44:50.417Z,62.50
2019-06-01T06:47:20.900Z,61.90
2019-06-01T06:49:51.908Z,61.50
2019-06-01T06:52:21.569Z,64.10
2019-06-01T06:54:51.230Z,60.90
2019-06-01T06:57:20.732Z,63.30
2019-06-01T06:59:50.223Z,64.50
2019-06-01T07:02:20.792Z,62.10
2019-06-01T07:04:50.648Z,60.70
2019-06-01T07:07:20.151Z,60.40
2019-06-01T07:09:49.763Z,60.00
2019-06-01T07:12:19.295Z,59.20
2019-06-01T07:14:48.906Z,59.20
2019-06-01T07:17:19.506Z,58.70
2019-06-01T07:19:49.127Z,59.30
2019-06-01T07:22:19.620Z,59.10
2019-06-01T07:24:49.520Z,59.50
2019-06-01T07:27:20.445Z,59.40
2019-06-01T07:29:49.875Z,59.80
2019-06-01T07:32:20.196Z,60.10
2019-06-01T07:34:53.757Z,58.90
2019-06-01T07:37:24.467Z,60.90
2019-06-01T07:39:54.135Z,60.10
2019-06-01T07:42:25.977Z,61.30
2019-06-01T07:44:54.738Z,63.00
2019-06-01T07:47:24.969Z,60.90
2019-06-01T07:49:54.615Z,57.90
2019-06-01T07:52:24.266Z,56.90
2019-06-01T07:54:53.951Z,57.20
2019-06-01T07:57:23.601Z,57.00
2019-06-01T07:59:53.407Z,56.80
2019-06-01T08:02:25.872Z,56.60
2019-06-01T08:04:54.841Z,58.90
2019-06-01T08:07:26.054Z,58.40
2019-06-01T08:09:55.769Z,58.00
2019-06-01T08:12:25.558Z,56.00
2019-06-01T08:14:55.368Z,58.20
2019-06-01T08:17:25.995Z,56.70
2019-06-01T08:19:55.709Z,56.10
2019-06-01T08:22:25.994Z,55.70
2019-06-01T08:24:55.514Z,55.50
2019-06-01T08:27:24.963Z,55.70
2019-06-01T08:29:54.437Z,57.20
2019-06-01T08:32:24.553Z,57.50
2019-06-01T08:35:07.807Z,56.90
2019-06-01T08:37:25.554Z,56.60
2019-06-01T08:39:59.023Z,57.20
2019-06-01T08:42:27.411Z,57.30
2019-06-01T08:44:57.099Z,57.30
2019-06-01T08:47:27.728Z,57.70
2019-06-01T08:49:57.487Z,56.70
2019-06-01T08:52:28.066Z,57.80
2019-06-01T08:54:57.583Z,57.80
2019-06-01T08:57:28.292Z,55.60
2019-06-01T08:59:58.194Z,53.90
2019-06-01T09:02:29.062Z,54.80
2019-06-01T09:04:58.865Z,56.50
2019-06-01T09:07:29.023Z,54.10
2019-06-01T09:09:58.684Z,53.50
2019-06-01T09:12:29.246Z,54.40
2019-06-01T09:14:59.246Z,55.70
2019-06-01T09:17:29.445Z,55.30
2019-06-01T09:19:59.349Z,54.00
2019-06-01T09:22:29.923Z,55.90
2019-06-01T09:24:59.612Z,56.20
2019-06-01T09:27:29.756Z,56.10
2019-06-01T09:29:59.539Z,57.80
2019-06-01T09:32:30.069Z,55.10
2019-06-01T09:35:06.555Z,55.50
2019-06-01T09:37:37.473Z,56.10
2019-06-01T09:40:07.807Z,56.80
2019-06-01T09:42:37.594Z,57.00
2019-06-01T09:45:07.947Z,57.20
2019-06-01T09:47:37.803Z,56.40
2019-06-01T09:50:08.674Z,57.50
2019-06-01T09:52:38.345Z,54.60
2019-06-01T09:55:09.076Z,54.00
2019-06-01T09:57:38.659Z,55.00
2019-06-01T10:00:12.702Z,55.60
2019-06-01T10:02:42.384Z,52.50
2019-06-01T10:05:12.213Z,53.10
2019-06-01T10:07:41.752Z,52.90
2019-06-01T10:10:11.637Z,55.10
2019-06-01T10:12:42.243Z,52.90
2019-06-01T10:15:12.462Z,53.10
2019-06-01T10:17:42.973Z,51.70
2019-06-01T10:20:13.115Z,54.00
2019-06-01T10:22:42.803Z,52.10
2019-06-01T10:25:13.650Z,51.10
2019-06-01T10:27:43.316Z,51.70
2019-06-01T10:30:14.596Z,53.10
2019-06-01T10:32:44.159Z,53.30
2019-06-01T10:35:14.134Z,53.40
2019-06-01T10:37:43.803Z,51.30
2019-06-01T10:40:13.714Z,52.00
2019-06-01T10:42:43.252Z,50.40
2019-06-01T10:45:13.850Z,51.10
2019-06-01T10:47:43.364Z,49.80
2019-06-01T10:50:17.128Z,50.60
2019-06-01T10:52:44.439Z,48.60
2019-06-01T10:55:14.547Z,48.60
2019-06-01T10:57:44.088Z,47.80
2019-06-01T11:00:14.196Z,49.70
2019-06-01T11:02:43.831Z,49.80
2019-06-01T11:05:14.208Z,47.90
2019-06-01T11:07:43.811Z,50.20
2019-06-01T11:10:14.195Z,47.40
2019-06-01T11:12:44.033Z,47.80
2019-06-01T11:15:13.839Z,50.30
2019-06-01T11:17:43.448Z,45.80
2019-06-01T11:20:14.323Z,45.10
2019-06-01T11:23:03.306Z,46.90
2019-06-01T11:25:33.442Z,42.20
2019-06-01T11:28:03.455Z,44.20
2019-06-01T11:30:33.517Z,45.10
2019-06-01T11:33:03.006Z,46.30
2019-06-01T11:35:32.588Z,45.60
2019-06-01T11:38:02.200Z,45.70
2019-06-01T11:40:31.784Z,45.20
2019-06-01T11:43:01.314Z,45.10
2019-06-01T11:45:30.892Z,43.80
2019-06-01T11:48:00.507Z,44.40
2019-06-01T11:50:30.083Z,44.30
2019-06-01T11:53:01.408Z,43.90
2019-06-01T11:55:31.002Z,42.40
2019-06-01T11:58:00.601Z,42.70
2019-06-01T12:00:30.263Z,43.60
2019-06-01T12:02:59.883Z,47.80
2019-06-01T12:05:29.476Z,45.40
2019-06-01T12:07:59.019Z,46.00
2019-06-01T12:10:28.559Z,45.50
2019-06-01T12:12:58.079Z,40.90
2019-06-01T12:15:27.736Z,42.20
2019-06-01T12:17:57.327Z,43.50
2019-06-01T12:20:26.883Z,46.20
2019-06-01T12:22:56.413Z,45.30
2019-06-01T12:25:26.031Z,43.90
2019-06-01T12:27:55.589Z,43.30
2019-06-01T12:30:25.965Z,43.30
2019-06-01T12:32:55.652Z,45.00
2019-06-01T12:35:25.188Z,43.90
2019-06-01T12:38:06.067Z,47.30
2019-06-01T12:40:27.012Z,45.20
2019-06-01T12:42:56.660Z,47.50
2019-06-01T12:45:26.286Z,46.80
2019-06-01T12:47:58.496Z,49.30
2019-06-01T12:50:32.125Z,48.30
2019-06-01T12:53:04.416Z,48.30
2019-06-01T12:55:34.279Z,49.10
2019-06-01T12:58:03.865Z,50.00
2019-06-01T13:00:33.493Z,49.60
2019-06-01T13:03:07.817Z,48.80
2019-06-01T13:05:36.218Z,49.10
2019-06-01T13:08:05.818Z,46.30
2019-06-01T13:10:35.436Z,50.00
2019-06-01T13:13:05.039Z,48.10
2019-06-01T13:15:37.080Z,47.80
2019-06-01T13:18:07.775Z,46.30
2019-06-01T13:20:37.363Z,46.90
2019-06-01T13:23:06.895Z,49.20
2019-06-01T13:25:36.472Z,46.70
2019-06-01T13:28:06.077Z,50.20
2019-06-01T13:30:35.729Z,46.30
2019-06-01T13:33:05.801Z,47.40
2019-06-01T13:35:35.272Z,48.60
2019-06-01T13:38:12.263Z,48.60
2019-06-01T13:40:36.011Z,49.10
2019-06-01T13:43:05.543Z,47.50
2019-06-01T13:45:35.600Z,46.00
2019-06-01T13:48:05.211Z,48.40
2019-06-01T13:50:34.783Z,49.60
2019-06-01T13:53:04.797Z,47.50
2019-06-01T13:55:34.476Z,46.20
2019-06-01T13:58:04.095Z,45.10
2019-06-01T14:00:34.219Z,49.00
2019-06-01T14:03:05.483Z,48.70
2019-06-01T14:05:35.091Z,48.90
2019-06-01T14:08:04.696Z,49.40
2019-06-01T14:10:34.318Z,49.00
2019-06-01T14:13:05.394Z,48.70
2019-06-01T14:15:36.122Z,47.10
2019-06-01T14:18:06.163Z,48.30
2019-06-01T14:20:35.767Z,47.80
2019-06-01T14:23:05.369Z,46.70
2019-06-01T14:25:34.787Z,49.10
2019-06-01T14:28:04.570Z,49.40
2019-06-01T14:30:34.033Z,49.20
2019-06-01T14:33:04.671Z,47.60
2019-06-01T14:35:35.883Z,48.20
2019-06-01T14:38:05.357Z,46.80
2019-06-01T14:40:34.792Z,47.60
2019-06-01T14:43:05.491Z,47.80
2019-06-01T14:45:35.404Z,50.80
2019-06-01T14:48:05.159Z,49.70
2019-06-01T14:50:34.835Z,51.00
2019-06-01T14:53:04.775Z,50.40
2019-06-01T14:55:34.385Z,50.80
2019-06-01T14:58:04.375Z,49.10
2019-06-01T15:00:34.587Z,48.80
2019-06-01T15:03:04.790Z,48.00
2019-06-01T15:05:34.400Z,47.40
2019-06-01T15:08:03.902Z,48.30
2019-06-01T15:10:33.538Z,50.30
2019-06-01T15:13:03.626Z,49.60
2019-06-01T15:15:35.603Z,48.30
2019-06-01T15:18:05.445Z,47.00
2019-06-01T15:20:35.226Z,48.10
2019-06-01T15:23:04.803Z,47.90
2019-06-01T15:25:34.459Z,49.80
2019-06-01T15:28:04.323Z,50.80
2019-06-01T15:30:34.483Z,50.40
2019-06-01T15:33:05.173Z,49.30
2019-06-01T15:35:34.736Z,50.20
2019-06-01T15:38:04.803Z,52.60
2019-06-01T15:40:34.312Z,49.80
2019-06-01T15:43:03.993Z,49.60
2019-06-01T15:45:34.710Z,49.10
2019-06-01T15:48:04.526Z,50.60
2019-06-01T15:50:34.038Z,51.30
2019-06-01T15:53:03.699Z,48.40
2019-06-01T15:55:33.354Z,49.00
2019-06-01T15:58:03.443Z,49.40
2019-06-01T16:00:35.603Z,51.60
2019-06-01T16:03:05.883Z,51.30
2019-06-01T16:05:35.491Z,49.90
2019-06-01T16:08:05.095Z,48.90
2019-06-01T16:10:34.755Z,48.70
2019-06-01T16:13:04.847Z,49.30
2019-06-01T16:15:37.563Z,49.30
2019-06-01T16:18:07.460Z,48.60
2019-06-01T16:20:37.183Z,48.10
2019-06-01T16:23:06.859Z,49.90
2019-06-01T16:25:36.534Z,49.70
2019-06-01T16:28:06.154Z,49.80
2019-06-01T16:30:36.547Z,49.70
2019-06-01T16:33:06.155Z,50.10
2019-06-01T16:35:35.667Z,50.00
2019-06-01T16:38:05.891Z,49.80
2019-06-01T16:40:36.511Z,49.70
2019-06-01T16:43:06.287Z,49.80
2019-06-01T16:45:36.874Z,49.40
2019-06-01T16:48:07.219Z,48.90
2019-06-01T16:50:36.701Z,48.40
2019-06-01T16:53:06.615Z,48.30
2019-06-01T16:55:36.258Z,49.60
2019-06-01T16:58:06.742Z,50.20
2019-06-01T17:00:36.459Z,49.50
2019-06-01T17:03:07.774Z,49.60
2019-06-01T17:05:37.721Z,49.80
2019-06-01T17:08:07.701Z,48.40
2019-06-01T17:10:37.763Z,48.40
2019-06-01T17:13:08.925Z,49.00
2019-06-01T17:15:39.536Z,48.00
2019-06-01T17:18:10.465Z,49.60
2019-06-01T17:20:48.678Z,50.50
2019-06-01T17:23:26.683Z,50.50
2019-06-01T17:25:49.599Z,49.80
2019-06-01T17:28:19.355Z,49.40
2019-06-01T17:30:49.144Z,50.80
2019-06-01T17:33:19.203Z,51.20
2019-06-01T17:35:48.871Z,50.30
2019-06-01T17:38:19.627Z,50.80
2019-06-01T17:40:49.174Z,51.40
2019-06-01T17:43:18.784Z,51.20
2019-06-01T17:45:48.601Z,51.50
2019-06-01T17:48:26.348Z,52.90
2019-06-01T17:50:49.492Z,53.30
2019-06-01T17:53:19.052Z,54.20
2019-06-01T17:55:48.719Z,56.50
2019-06-01T17:58:18.288Z,56.80
2019-06-01T18:00:47.901Z,56.80
2019-06-01T18:03:33.295Z,57.60
2019-06-01T18:06:03.669Z,57.70
2019-06-01T18:08:33.781Z,58.20
2019-06-01T18:11:03.860Z,58.60
2019-06-01T18:13:33.824Z,59.60
2019-06-01T18:16:04.626Z,58.70
2019-06-01T18:18:34.556Z,59.70
2019-06-01T18:21:06.207Z,59.80
2019-06-01T18:23:36.171Z,60.20
2019-06-01T18:26:06.918Z,60.00
2019-06-01T18:28:36.926Z,60.90
2019-06-01T18:31:06.780Z,61.20
2019-06-01T18:33:37.691Z,61.30
2019-06-01T18:36:07.596Z,61.30
2019-06-01T18:38:37.503Z,61.40
2019-06-01T18:41:14.589Z,61.70
2019-06-01T18:43:38.247Z,61.50
2019-06-01T18:46:08.244Z,61.10
2019-06-01T18:48:38.372Z,61.60
2019-06-01T18:51:08.273Z,60.40
2019-06-01T18:53:37.992Z,60.20
2019-06-01T18:56:08.192Z,59.60
2019-06-01T18:58:37.945Z,59.70
2019-06-01T19:01:08.401Z,60.30
2019-06-01T19:03:38.379Z,60.20
2019-06-01T19:06:08.001Z,61.60
2019-06-01T19:08:37.722Z,62.00
2019-06-01T19:11:08.378Z,60.50
2019-06-01T19:13:38.131Z,59.90
2019-06-01T19:16:08.043Z,60.20
2019-06-01T19:18:37.737Z,60.10
2019-06-01T19:21:08.533Z,60.40
2019-06-01T19:23:38.522Z,61.10
2019-06-01T19:26:11.535Z,59.90
2019-06-01T19:28:39.366Z,59.70
2019-06-01T19:31:08.984Z,59.50
2019-06-01T19:33:38.675Z,59.50
2019-06-01T19:36:08.921Z,59.10
2019-06-01T19:38:40.570Z,58.60
2019-06-01T19:41:11.300Z,58.50
2019-06-01T19:43:41.167Z,58.40
2019-06-01T19:46:11.737Z,59.00
2019-06-01T19:48:41.542Z,58.60
2019-06-01T19:51:12.383Z,58.70
2019-06-01T19:53:42.411Z,58.20
2019-06-01T19:56:12.889Z,58.30
2019-06-01T19:58:42.613Z,58.30
2019-06-01T20:01:12.302Z,58.50
2019-06-01T20:03:41.947Z,58.60
2019-06-01T20:06:12.781Z,58.40
2019-06-01T20:08:42.711Z,58.70
2019-06-01T20:11:13.131Z,58.60
2019-06-01T20:13:42.907Z,58.10
2019-06-01T20:16:12.463Z,59.10
2019-06-01T20:18:41.971Z,59.20
2019-06-01T20:21:11.809Z,59.30
2019-06-01T20:23:41.703Z,59.30
2019-06-01T20:26:11.387Z,59.10
2019-06-01T20:28:41.003Z,59.30
2019-06-01T20:31:11.722Z,59.40
2019-06-01T20:33:41.706Z,59.20
2019-06-01T20:36:13.917Z,59.10
2019-06-01T20:38:43.629Z,58.80
2019-06-01T20:41:14.814Z,59.20
2019-06-01T20:43:44.444Z,59.40
2019-06-01T20:46:14.565Z,59.40
2019-06-01T20:48:44.352Z,59.60
2019-06-01T20:51:14.731Z,58.80
2019-06-01T20:53:44.659Z,58.70
2019-06-01T20:56:15.360Z,58.60
2019-06-01T20:58:44.939Z,58.50
2019-06-01T21:01:15.609Z,58.80
2019-06-01T21:03:45.491Z,58.70
2019-06-01T21:06:15.827Z,59.10
2019-06-01T21:08:45.542Z,59.40
2019-06-01T21:11:15.863Z,60.50
2019-06-01T21:13:45.813Z,60.40
2019-06-01T21:16:16.092Z,60.60
2019-06-01T21:18:45.783Z,60.80
2019-06-01T21:21:16.317Z,60.50
2019-06-01T21:23:46.137Z,60.10
2019-06-01T21:26:16.787Z,59.70
2019-06-01T21:28:46.798Z,60.00
2019-06-01T21:31:16.915Z,59.60
2019-06-01T21:33:46.654Z,59.40
2019-06-01T21:36:17.483Z,59.10
2019-06-01T21:38:47.378Z,58.40
2019-06-01T21:41:17.497Z,57.80
2019-06-01T21:43:47.103Z,57.40
2019-06-01T21:46:17.576Z,58.30
2019-06-01T21:48:47.155Z,57.10
2019-06-01T21:51:17.717Z,57.30
2019-06-01T21:53:47.362Z,58.20
2019-06-01T21:56:19.942Z,58.60
2019-06-01T21:58:49.043Z,58.30
2019-06-01T22:01:19.118Z,59.00
2019-06-01T22:03:48.650Z,58.70
2019-06-01T22:06:19.064Z,58.50
2019-06-01T22:08:52.536Z,58.30
2019-06-01T22:11:21.397Z,58.90
2019-06-01T22:13:51.307Z,59.00
2019-06-01T22:16:21.675Z,59.30
2019-06-01T22:18:51.459Z,59.40
2019-06-01T22:21:21.700Z,59.10
2019-06-01T22:23:51.484Z,59.30
2019-06-01T22:26:22.048Z,59.70
2019-06-01T22:28:51.737Z,59.50
2019-06-01T22:31:22.287Z,59.80
2019-06-01T22:33:52.044Z,60.10
2019-06-01T22:36:22.640Z,60.30
2019-06-01T22:38:53.323Z,59.90
2019-06-01T22:41:26.254Z,60.10
2019-06-01T22:44:20.108Z,59.80
2019-06-01T22:46:49.989Z,60.30
2019-06-01T22:49:28.936Z,59.70
2019-06-01T22:52:00.306Z,60.10
2019-06-01T22:54:36.861Z,60.10
2019-06-01T22:57:07.787Z,60.10
2019-06-01T22:59:37.886Z,60.00
2019-06-01T23:02:07.905Z,60.70
2019-06-01T23:04:39.153Z,60.30
2019-06-01T23:07:09.269Z,60.40
2019-06-01T23:09:39.569Z,60.60
2019-06-01T23:12:09.845Z,61.00
2019-06-01T23:14:44.213Z,60.80
2019-06-01T23:17:14.011Z,60.90
2019-06-01T23:20:00.621Z,61.50
2019-06-01T23:22:32.318Z,61.30
2019-06-01T23:25:04.222Z,62.10
2019-06-01T23:27:35.966Z,61.90
2019-06-01T23:30:28.133Z,61.90
2019-06-01T23:32:58.747Z,62.30
2019-06-01T23:35:30.390Z,61.60
2019-06-01T23:38:00.761Z,61.60
2019-06-01T23:40:43.931Z,61.10
2019-06-01T23:43:18.416Z,62.20
2019-06-01T23:45:49.404Z,62.70
2019-06-01T23:51:38.567Z,63.10
2019-06-01T23:54:10.068Z,63.40
2019-06-01T23:56:41.020Z,63.50
2019-06-01T23:59:17.435Z,63.40
